sensor_id;sensor_type;location;lat;lon;timestamp;temperature;humidity
14993;DHT22;7592;51.088;13.732;2024-03-07T00:00:09;5.90;99.90
14993;DHT22;7592;51.088;13.732;2024-03-07T00:05:10;6.00;99.90
14993;DHT22;7592;51.088;13.732;2024-03-07T00:10:03;6.10;99.90
14993;DHT22;7592;51.088;13.732;2024-03-07T00:14:57;6.10;99.90
14993;DHT22;7592;51.088;13.732;2024-03-07T00:19:49;6.10;99.90
14993;DHT22;7592;51.088;13.732;2024-03-07T00:24:41;6.20;99.90
14993;DHT22;7592;51.088;13.732;2024-03-07T00:29:34;6.20;99.90
14993;DHT22;7592;51.088;13.732;2024-03-07T00:34:29;6.20;99.90
14993;DHT22;7592;51.088;13.732;2024-03-07T00:39:21;6.10;99.90
14993;DHT22;7592;51.088;13.732;2024-03-07T00:44:14;6.00;99.90
14993;DHT22;7592;51.088;13.732;2024-03-07T00:49:06;6.00;99.90
14993;DHT22;7592;51.088;13.732;2024-03-07T00:53:58;6.10;99.90
14993;DHT22;7592;51.088;13.732;2024-03-07T00:58:51;6.10;99.90
14993;DHT22;7592;51.088;13.732;2024-03-07T01:03:43;6.10;99.90
14993;DHT22;7592;51.088;13.732;2024-03-07T01:15:23;6.10;99.90
14993;DHT22;7592;51.088;13.732;2024-03-07T01:20:16;6.20;99.90
14993;DHT22;7592;51.088;13.732;2024-03-07T01:25:11;6.20;99.90
14993;DHT22;7592;51.088;13.732;2024-03-07T01:30:09;6.20;99.90
14993;DHT22;7592;51.088;13.732;2024-03-07T01:35:02;6.20;99.90
14993;DHT22;7592;51.088;13.732;2024-03-07T01:39:55;6.30;99.90
14993;DHT22;7592;51.088;13.732;2024-03-07T01:44:48;6.30;99.90
14993;DHT22;7592;51.088;13.732;2024-03-07T01:49:41;6.30;99.90
14993;DHT22;7592;51.088;13.732;2024-03-07T01:54:35;6.30;99.90
14993;DHT22;7592;51.088;13.732;2024-03-07T01:59:32;6.30;99.90
14993;DHT22;7592;51.088;13.732;2024-03-07T02:04:25;6.30;99.90
14993;DHT22;7592;51.088;13.732;2024-03-07T02:09:18;6.30;99.90
14993;DHT22;7592;51.088;13.732;2024-03-07T02:14:11;6.40;99.90
14993;DHT22;7592;51.088;13.732;2024-03-07T02:19:04;6.40;99.90
14993;DHT22;7592;51.088;13.732;2024-03-07T02:23:56;6.40;99.90
14993;DHT22;7592;51.088;13.732;2024-03-07T02:28:48;6.40;99.90
14993;DHT22;7592;51.088;13.732;2024-03-07T02:33:40;6.50;99.90
14993;DHT22;7592;51.088;13.732;2024-03-07T02:38:33;6.50;99.90
14993;DHT22;7592;51.088;13.732;2024-03-07T02:43:27;6.30;99.90
14993;DHT22;7592;51.088;13.732;2024-03-07T02:48:19;6.30;99.90
14993;DHT22;7592;51.088;13.732;2024-03-07T02:53:11;6.40;99.90
14993;DHT22;7592;51.088;13.732;2024-03-07T02:58:04;6.40;99.90
14993;DHT22;7592;51.088;13.732;2024-03-07T03:02:56;6.50;99.90
14993;DHT22;7592;51.088;13.732;2024-03-07T03:14:37;6.50;99.90
14993;DHT22;7592;51.088;13.732;2024-03-07T03:19:32;6.40;99.90
14993;DHT22;7592;51.088;13.732;2024-03-07T03:24:25;6.40;99.90
14993;DHT22;7592;51.088;13.732;2024-03-07T03:29:21;6.40;99.90
14993;DHT22;7592;51.088;13.732;2024-03-07T03:34:14;6.30;99.90
14993;DHT22;7592;51.088;13.732;2024-03-07T03:39:08;6.30;99.90
14993;DHT22;7592;51.088;13.732;2024-03-07T03:44:03;6.30;99.90
14993;DHT22;7592;51.088;13.732;2024-03-07T03:48:59;6.30;99.90
14993;DHT22;7592;51.088;13.732;2024-03-07T03:53:52;6.20;99.90
14993;DHT22;7592;51.088;13.732;2024-03-07T03:58:48;6.20;99.90
14993;DHT22;7592;51.088;13.732;2024-03-07T04:03:40;6.20;99.90
14993;DHT22;7592;51.088;13.732;2024-03-07T04:08:33;6.20;99.90
14993;DHT22;7592;51.088;13.732;2024-03-07T04:13:29;6.20;99.90
14993;DHT22;7592;51.088;13.732;2024-03-07T04:18:23;6.00;99.90
14993;DHT22;7592;51.088;13.732;2024-03-07T04:23:15;5.90;99.90
14993;DHT22;7592;51.088;13.732;2024-03-07T04:28:07;5.70;99.90
14993;DHT22;7592;51.088;13.732;2024-03-07T04:32:59;5.60;99.90
14993;DHT22;7592;51.088;13.732;2024-03-07T04:37:52;5.40;99.90
14993;DHT22;7592;51.088;13.732;2024-03-07T04:49:34;5.10;99.90
14993;DHT22;7592;51.088;13.732;2024-03-07T04:54:28;5.10;99.90
14993;DHT22;7592;51.088;13.732;2024-03-07T04:59:21;5.10;99.90
14993;DHT22;7592;51.088;13.732;2024-03-07T05:04:15;5.20;99.90
14993;DHT22;7592;51.088;13.732;2024-03-07T05:09:09;5.20;99.90
14993;DHT22;7592;51.088;13.732;2024-03-07T05:14:03;5.10;99.90
14993;DHT22;7592;51.088;13.732;2024-03-07T05:18:56;4.90;99.90
14993;DHT22;7592;51.088;13.732;2024-03-07T05:23:51;4.80;99.90
14993;DHT22;7592;51.088;13.732;2024-03-07T05:28:44;4.70;99.90
14993;DHT22;7592;51.088;13.732;2024-03-07T05:33:38;4.60;99.90
14993;DHT22;7592;51.088;13.732;2024-03-07T05:38:30;4.50;99.90
14993;DHT22;7592;51.088;13.732;2024-03-07T05:43:23;4.40;99.90
14993;DHT22;7592;51.088;13.732;2024-03-07T05:48:15;4.30;99.90
14993;DHT22;7592;51.088;13.732;2024-03-07T05:53:09;4.00;99.90
14993;DHT22;7592;51.088;13.732;2024-03-07T05:58:03;4.10;99.90
14993;DHT22;7592;51.088;13.732;2024-03-07T06:02:56;4.00;99.90
14993;DHT22;7592;51.088;13.732;2024-03-07T06:07:48;4.10;99.90
14993;DHT22;7592;51.088;13.732;2024-03-07T06:12:41;4.10;99.90
14993;DHT22;7592;51.088;13.732;2024-03-07T06:17:55;4.10;99.90
14993;DHT22;7592;51.088;13.732;2024-03-07T06:22:48;4.10;99.90
14993;DHT22;7592;51.088;13.732;2024-03-07T06:27:41;4.20;99.90
14993;DHT22;7592;51.088;13.732;2024-03-07T06:32:41;4.50;99.90
14993;DHT22;7592;51.088;13.732;2024-03-07T06:37:34;4.80;99.90
14993;DHT22;7592;51.088;13.732;2024-03-07T06:42:26;5.30;99.90
14993;DHT22;7592;51.088;13.732;2024-03-07T06:47:19;6.10;99.90
14993;DHT22;7592;51.088;13.732;2024-03-07T06:52:12;6.70;99.90
14993;DHT22;7592;51.088;13.732;2024-03-07T06:57:05;7.60;99.90
14993;DHT22;7592;51.088;13.732;2024-03-07T07:01:58;8.80;99.90
14993;DHT22;7592;51.088;13.732;2024-03-07T07:06:51;9.30;99.90
14993;DHT22;7592;51.088;13.732;2024-03-07T07:11:43;9.10;99.90
14993;DHT22;7592;51.088;13.732;2024-03-07T07:16:38;9.40;99.90
14993;DHT22;7592;51.088;13.732;2024-03-07T07:21:37;9.70;99.90
14993;DHT22;7592;51.088;13.732;2024-03-07T07:33:18;9.40;99.90
14993;DHT22;7592;51.088;13.732;2024-03-07T07:38:12;8.50;99.90
14993;DHT22;7592;51.088;13.732;2024-03-07T07:43:07;7.70;99.90
14993;DHT22;7592;51.088;13.732;2024-03-07T07:48:00;6.70;99.90
14993;DHT22;7592;51.088;13.732;2024-03-07T07:52:56;6.90;99.90
14993;DHT22;7592;51.088;13.732;2024-03-07T07:58:07;7.00;99.90
14993;DHT22;7592;51.088;13.732;2024-03-07T08:03:02;7.70;99.90
14993;DHT22;7592;51.088;13.732;2024-03-07T08:08:01;10.50;99.90
14993;DHT22;7592;51.088;13.732;2024-03-07T08:13:00;11.30;99.90
14993;DHT22;7592;51.088;13.732;2024-03-07T08:17:53;10.80;99.90
14993;DHT22;7592;51.088;13.732;2024-03-07T08:22:48;12.50;98.70
14993;DHT22;7592;51.088;13.732;2024-03-07T08:27:47;14.40;92.40
14993;DHT22;7592;51.088;13.732;2024-03-07T08:39:30;12.60;88.90
14993;DHT22;7592;51.088;13.732;2024-03-07T08:44:22;11.60;91.00
14993;DHT22;7592;51.088;13.732;2024-03-07T08:49:14;11.80;90.40
14993;DHT22;7592;51.088;13.732;2024-03-07T08:54:09;11.50;91.10
14993;DHT22;7592;51.088;13.732;2024-03-07T08:59:01;11.70;91.80
14993;DHT22;7592;51.088;13.732;2024-03-07T09:03:54;11.40;91.30
14993;DHT22;7592;51.088;13.732;2024-03-07T09:08:46;10.70;90.70
14993;DHT22;7592;51.088;13.732;2024-03-07T09:13:39;10.10;92.10
14993;DHT22;7592;51.088;13.732;2024-03-07T09:18:32;10.10;92.20
14993;DHT22;7592;51.088;13.732;2024-03-07T09:23:25;9.30;92.30
14993;DHT22;7592;51.088;13.732;2024-03-07T09:28:17;9.30;93.60
14993;DHT22;7592;51.088;13.732;2024-03-07T09:40:24;10.40;92.00
14993;DHT22;7592;51.088;13.732;2024-03-07T09:45:21;9.90;92.50
14993;DHT22;7592;51.088;13.732;2024-03-07T09:50:16;9.30;93.60
14993;DHT22;7592;51.088;13.732;2024-03-07T09:55:12;9.20;94.10
14993;DHT22;7592;51.088;13.732;2024-03-07T10:00:07;8.90;94.60
14993;DHT22;7592;51.088;13.732;2024-03-07T10:05:05;8.60;95.20
14993;DHT22;7592;51.088;13.732;2024-03-07T10:10:00;8.80;94.80
14993;DHT22;7592;51.088;13.732;2024-03-07T10:14:56;8.50;94.70
14993;DHT22;7592;51.088;13.732;2024-03-07T10:19:58;8.70;93.70
14993;DHT22;7592;51.088;13.732;2024-03-07T10:24:56;8.30;94.80
14993;DHT22;7592;51.088;13.732;2024-03-07T10:29:54;8.40;95.20
14993;DHT22;7592;51.088;13.732;2024-03-07T10:34:47;8.70;95.50
14993;DHT22;7592;51.088;13.732;2024-03-07T10:45:45;8.60;97.40
14993;DHT22;7592;51.088;13.732;2024-03-07T11:01:39;8.20;99.70
14993;DHT22;7592;51.088;13.732;2024-03-07T11:06:32;8.10;99.90
14993;DHT22;7592;51.088;13.732;2024-03-07T11:11:29;8.00;99.90
14993;DHT22;7592;51.088;13.732;2024-03-07T11:16:23;7.40;99.90
14993;DHT22;7592;51.088;13.732;2024-03-07T11:21:41;7.30;99.90
14993;DHT22;7592;51.088;13.732;2024-03-07T11:26:34;7.50;99.90
14993;DHT22;7592;51.088;13.732;2024-03-07T11:31:27;7.50;99.90
14993;DHT22;7592;51.088;13.732;2024-03-07T11:36:46;7.50;99.90
14993;DHT22;7592;51.088;13.732;2024-03-07T11:41:42;7.40;99.90
14993;DHT22;7592;51.088;13.732;2024-03-07T11:53:22;7.30;99.90
14993;DHT22;7592;51.088;13.732;2024-03-07T11:58:16;7.20;99.90
14993;DHT22;7592;51.088;13.732;2024-03-07T12:03:09;7.30;99.90
14993;DHT22;7592;51.088;13.732;2024-03-07T12:08:05;7.60;99.90
14993;DHT22;7592;51.088;13.732;2024-03-07T12:12:58;7.60;99.90
14993;DHT22;7592;51.088;13.732;2024-03-07T12:17:51;7.20;99.90
14993;DHT22;7592;51.088;13.732;2024-03-07T12:22:44;7.30;99.90
14993;DHT22;7592;51.088;13.732;2024-03-07T12:27:38;7.20;99.90
14993;DHT22;7592;51.088;13.732;2024-03-07T12:32:31;7.30;99.90
14993;DHT22;7592;51.088;13.732;2024-03-07T12:37:24;7.50;99.90
14993;DHT22;7592;51.088;13.732;2024-03-07T12:42:19;7.70;99.90
14993;DHT22;7592;51.088;13.732;2024-03-07T12:47:14;8.20;99.90
14993;DHT22;7592;51.088;13.732;2024-03-07T12:52:06;8.50;99.90
14993;DHT22;7592;51.088;13.732;2024-03-07T12:57:01;9.00;99.90
14993;DHT22;7592;51.088;13.732;2024-03-07T13:01:57;8.40;99.30
14993;DHT22;7592;51.088;13.732;2024-03-07T13:06:49;8.30;99.90
14993;DHT22;7592;51.088;13.732;2024-03-07T13:11:43;8.20;99.90
14993;DHT22;7592;51.088;13.732;2024-03-07T13:16:40;8.20;99.90
14993;DHT22;7592;51.088;13.732;2024-03-07T13:21:35;8.20;99.90
14993;DHT22;7592;51.088;13.732;2024-03-07T13:26:29;8.00;99.90
14993;DHT22;7592;51.088;13.732;2024-03-07T13:31:24;7.90;99.90
14993;DHT22;7592;51.088;13.732;2024-03-07T13:36:18;8.00;99.90
14993;DHT22;7592;51.088;13.732;2024-03-07T13:41:15;8.40;99.00
14993;DHT22;7592;51.088;13.732;2024-03-07T13:46:08;8.50;98.90
14993;DHT22;7592;51.088;13.732;2024-03-07T13:51:02;8.30;98.40
14993;DHT22;7592;51.088;13.732;2024-03-07T14:06:42;8.30;98.50
14993;DHT22;7592;51.088;13.732;2024-03-07T14:23:09;8.10;98.50
14993;DHT22;7592;51.088;13.732;2024-03-07T14:33:35;7.90;99.60
14993;DHT22;7592;51.088;13.732;2024-03-07T14:38:54;8.20;98.90
14993;DHT22;7592;51.088;13.732;2024-03-07T14:43:47;8.00;99.50
14993;DHT22;7592;51.088;13.732;2024-03-07T14:48:40;7.90;99.90
14993;DHT22;7592;51.088;13.732;2024-03-07T14:53:35;7.80;99.40
14993;DHT22;7592;51.088;13.732;2024-03-07T14:58:30;7.90;98.90
14993;DHT22;7592;51.088;13.732;2024-03-07T15:03:27;8.00;98.90
14993;DHT22;7592;51.088;13.732;2024-03-07T15:08:23;8.00;98.50
14993;DHT22;7592;51.088;13.732;2024-03-07T15:13:16;7.80;98.80
14993;DHT22;7592;51.088;13.732;2024-03-07T15:18:09;7.80;99.10
14993;DHT22;7592;51.088;13.732;2024-03-07T15:29:50;7.80;99.80
14993;DHT22;7592;51.088;13.732;2024-03-07T15:34:43;7.60;99.90
14993;DHT22;7592;51.088;13.732;2024-03-07T15:39:36;7.50;99.90
14993;DHT22;7592;51.088;13.732;2024-03-07T15:44:31;7.60;99.90
14993;DHT22;7592;51.088;13.732;2024-03-07T15:49:24;7.30;99.90
14993;DHT22;7592;51.088;13.732;2024-03-07T15:54:18;7.30;99.90
14993;DHT22;7592;51.088;13.732;2024-03-07T15:59:10;7.30;99.90
14993;DHT22;7592;51.088;13.732;2024-03-07T16:04:03;7.30;99.90
14993;DHT22;7592;51.088;13.732;2024-03-07T16:08:59;7.20;99.90
14993;DHT22;7592;51.088;13.732;2024-03-07T16:13:54;7.20;99.90
14993;DHT22;7592;51.088;13.732;2024-03-07T16:18:48;7.10;99.90
14993;DHT22;7592;51.088;13.732;2024-03-07T16:23:41;7.00;99.90
14993;DHT22;7592;51.088;13.732;2024-03-07T16:28:34;6.80;99.90
14993;DHT22;7592;51.088;13.732;2024-03-07T16:33:27;6.80;99.90
14993;DHT22;7592;51.088;13.732;2024-03-07T16:38:21;6.80;99.90
14993;DHT22;7592;51.088;13.732;2024-03-07T16:43:15;6.70;99.90
14993;DHT22;7592;51.088;13.732;2024-03-07T16:48:08;6.60;99.90
14993;DHT22;7592;51.088;13.732;2024-03-07T16:53:04;6.50;99.90
14993;DHT22;7592;51.088;13.732;2024-03-07T16:57:58;6.40;99.90
14993;DHT22;7592;51.088;13.732;2024-03-07T17:03:01;6.30;99.90
14993;DHT22;7592;51.088;13.732;2024-03-07T17:07:54;6.10;99.90
14993;DHT22;7592;51.088;13.732;2024-03-07T17:12:50;6.10;99.90
14993;DHT22;7592;51.088;13.732;2024-03-07T17:17:45;6.10;99.90
14993;DHT22;7592;51.088;13.732;2024-03-07T17:22:38;6.20;99.90
14993;DHT22;7592;51.088;13.732;2024-03-07T17:27:32;6.00;99.90
14993;DHT22;7592;51.088;13.732;2024-03-07T17:32:25;5.90;99.90
14993;DHT22;7592;51.088;13.732;2024-03-07T17:37:17;5.90;99.90
14993;DHT22;7592;51.088;13.732;2024-03-07T17:42:12;5.90;99.90
14993;DHT22;7592;51.088;13.732;2024-03-07T17:47:07;5.80;99.90
14993;DHT22;7592;51.088;13.732;2024-03-07T17:52:03;5.70;99.90
14993;DHT22;7592;51.088;13.732;2024-03-07T17:56:55;5.80;99.90
14993;DHT22;7592;51.088;13.732;2024-03-07T18:01:48;5.80;99.90
14993;DHT22;7592;51.088;13.732;2024-03-07T18:06:44;5.70;99.90
14993;DHT22;7592;51.088;13.732;2024-03-07T18:11:37;5.70;99.90
14993;DHT22;7592;51.088;13.732;2024-03-07T18:16:33;5.70;99.90
14993;DHT22;7592;51.088;13.732;2024-03-07T18:21:28;5.60;99.90
14993;DHT22;7592;51.088;13.732;2024-03-07T18:26:22;5.70;99.90
14993;DHT22;7592;51.088;13.732;2024-03-07T18:31:15;5.50;99.90
14993;DHT22;7592;51.088;13.732;2024-03-07T18:36:11;5.40;99.90
14993;DHT22;7592;51.088;13.732;2024-03-07T18:41:06;5.40;99.90
14993;DHT22;7592;51.088;13.732;2024-03-07T18:45:58;5.40;99.90
14993;DHT22;7592;51.088;13.732;2024-03-07T18:50:50;5.40;99.90
14993;DHT22;7592;51.088;13.732;2024-03-07T18:55:43;5.40;99.90
14993;DHT22;7592;51.088;13.732;2024-03-07T19:00:42;5.50;99.90
14993;DHT22;7592;51.088;13.732;2024-03-07T19:05:40;5.30;99.90
14993;DHT22;7592;51.088;13.732;2024-03-07T19:10:33;5.30;99.90
14993;DHT22;7592;51.088;13.732;2024-03-07T19:15:26;5.30;99.90
14993;DHT22;7592;51.088;13.732;2024-03-07T19:20:22;5.30;99.90
14993;DHT22;7592;51.088;13.732;2024-03-07T19:25:15;5.30;99.90
14993;DHT22;7592;51.088;13.732;2024-03-07T19:30:16;5.20;99.90
14993;DHT22;7592;51.088;13.732;2024-03-07T19:35:09;5.20;99.90
14993;DHT22;7592;51.088;13.732;2024-03-07T19:40:08;5.10;99.90
14993;DHT22;7592;51.088;13.732;2024-03-07T19:45:07;5.00;99.90
14993;DHT22;7592;51.088;13.732;2024-03-07T19:50:01;5.00;99.90
14993;DHT22;7592;51.088;13.732;2024-03-07T19:54:56;5.00;99.90
14993;DHT22;7592;51.088;13.732;2024-03-07T19:59:48;4.90;99.90
14993;DHT22;7592;51.088;13.732;2024-03-07T20:04:43;5.00;99.90
14993;DHT22;7592;51.088;13.732;2024-03-07T20:15:24;4.90;99.90
14993;DHT22;7592;51.088;13.732;2024-03-07T20:20:20;4.90;99.90
14993;DHT22;7592;51.088;13.732;2024-03-07T20:25:22;4.80;99.90
14993;DHT22;7592;51.088;13.732;2024-03-07T20:30:38;4.80;99.90
14993;DHT22;7592;51.088;13.732;2024-03-07T20:35:31;4.90;99.90
14993;DHT22;7592;51.088;13.732;2024-03-07T20:40:23;4.90;99.90
14993;DHT22;7592;51.088;13.732;2024-03-07T20:45:18;4.80;99.90
14993;DHT22;7592;51.088;13.732;2024-03-07T20:50:16;4.80;99.90
14993;DHT22;7592;51.088;13.732;2024-03-07T20:55:09;4.70;99.90
14993;DHT22;7592;51.088;13.732;2024-03-07T21:00:07;4.80;99.90
14993;DHT22;7592;51.088;13.732;2024-03-07T21:05:07;4.70;99.90
14993;DHT22;7592;51.088;13.732;2024-03-07T21:10:02;4.70;99.90
14993;DHT22;7592;51.088;13.732;2024-03-07T21:14:58;4.70;99.90
14993;DHT22;7592;51.088;13.732;2024-03-07T21:25:25;4.70;99.90
14993;DHT22;7592;51.088;13.732;2024-03-07T21:30:18;4.60;99.90
14993;DHT22;7592;51.088;13.732;2024-03-07T21:35:20;4.60;99.90
14993;DHT22;7592;51.088;13.732;2024-03-07T21:40:13;4.80;99.90
14993;DHT22;7592;51.088;13.732;2024-03-07T21:45:12;4.90;99.90
14993;DHT22;7592;51.088;13.732;2024-03-07T21:50:09;4.90;99.90
14993;DHT22;7592;51.088;13.732;2024-03-07T21:55:09;4.80;99.90
14993;DHT22;7592;51.088;13.732;2024-03-07T22:00:05;4.80;99.90
14993;DHT22;7592;51.088;13.732;2024-03-07T22:04:58;4.80;99.90
14993;DHT22;7592;51.088;13.732;2024-03-07T22:09:54;4.80;99.90
14993;DHT22;7592;51.088;13.732;2024-03-07T22:14:47;4.80;99.90
14993;DHT22;7592;51.088;13.732;2024-03-07T22:19:40;4.70;99.90
14993;DHT22;7592;51.088;13.732;2024-03-07T22:24:32;4.80;99.90
14993;DHT22;7592;51.088;13.732;2024-03-07T22:29:25;4.70;99.90
14993;DHT22;7592;51.088;13.732;2024-03-07T22:40:32;4.80;99.90
14993;DHT22;7592;51.088;13.732;2024-03-07T22:45:26;4.80;99.90
14993;DHT22;7592;51.088;13.732;2024-03-07T22:50:18;4.70;99.90
14993;DHT22;7592;51.088;13.732;2024-03-07T22:55:22;4.80;99.90
14993;DHT22;7592;51.088;13.732;2024-03-07T23:00:15;4.70;99.90
14993;DHT22;7592;51.088;13.732;2024-03-07T23:05:31;4.70;99.90
14993;DHT22;7592;51.088;13.732;2024-03-07T23:10:24;4.70;99.90
14993;DHT22;7592;51.088;13.732;2024-03-07T23:15:17;4.70;99.90
14993;DHT22;7592;51.088;13.732;2024-03-07T23:20:18;4.70;99.90
14993;DHT22;7592;51.088;13.732;2024-03-07T23:25:14;4.70;99.90
14993;DHT22;7592;51.088;13.732;2024-03-07T23:30:07;4.60;99.90
14993;DHT22;7592;51.088;13.732;2024-03-07T23:35:01;4.60;99.90
14993;DHT22;7592;51.088;13.732;2024-03-07T23:40:31;4.40;99.90
14993;DHT22;7592;51.088;13.732;2024-03-07T23:45:26;4.00;99.90
14993;DHT22;7592;51.088;13.732;2024-03-07T23:50:20;3.50;99.90
14993;DHT22;7592;51.088;13.732;2024-03-07T23:55:13;3.20;99.90
